Time;durP1;ratioP1;P1;durP2;ratioP2;P2;SDS_P1;SDS_P2;PMS_P1;PMS_P2;Temp;Humidity;BMP_temperature;BMP_pressure;BME280_temperature;BME280_humidity;BME280_pressure;Samples;Min_cycle;Max_cycle;Signal;HPM_P1;HPM_P2
2023/01/15 00:02:33;;;;;;;2.55;2.00;;;;;2.40;96587.00;;;;5115713;23;20826;-67
2023/01/15 00:05:21;;;;;;;2.50;2.10;;;1.30;99.90;2.50;96577.00;;;;5084060;28;20437;-68
2023/01/15 00:08:10;;;;;;;3.40;1.87;;;1.40;99.90;2.70;96579.00;;;;5079549;28;20482;-68
2023/01/15 00:11:03;;;;;;;3.17;2.30;;;1.40;99.90;2.70;96565.00;;;;5085365;28;20545;-67
2023/01/15 00:13:52;;;;;;;2.00;1.63;;;1.50;99.90;2.70;96560.00;;;;5069324;28;20426;-68
2023/01/15 00:16:44;;;;;;;1.93;1.50;;;1.50;99.90;2.60;96557.00;;;;5063141;28;20437;-67
2023/01/15 00:19:32;;;;;;;2.63;1.60;;;1.50;99.90;2.90;96561.00;;;;5056598;28;20457;-69
2023/01/15 00:22:21;;;;;;;2.30;1.63;;;1.50;99.90;2.70;96558.00;;;;5063302;28;20426;-69
2023/01/15 00:28:17;;;;;;;4.03;2.67;;;;;2.20;96557.00;;;;5062253;28;20455;-69
2023/01/15 00:31:06;;;;;;;3.67;2.07;;;1.50;99.90;2.30;96554.00;;;;5058446;28;20496;-69
2023/01/15 00:33:56;;;;;;;3.30;2.43;;;1.40;99.90;2.60;96555.00;;;;5070290;28;20425;-69
2023/01/15 00:36:45;;;;;;;5.50;2.97;;;1.50;99.90;2.70;96546.00;;;;5068647;28;20811;-69
2023/01/15 00:39:34;;;;;;;5.47;3.17;;;1.50;99.90;2.20;96550.00;;;;5058494;28;20508;-69
2023/01/15 00:42:23;;;;;;;5.00;2.90;;;;;2.40;96541.00;;;;5049137;28;20434;-69
2023/01/15 00:45:13;;;;;;;4.80;2.77;;;3.00;99.90;2.30;96552.00;;;;5057806;28;21026;-69
2023/01/15 00:48:01;;;;;;;4.60;2.53;;;1.40;99.90;2.70;96543.00;;;;5068980;28;20470;-69
2023/01/15 00:50:51;;;;;;;6.00;3.20;;;1.50;99.90;2.80;96547.00;;;;5066961;28;20946;-69
2023/01/15 00:53:40;;;;;;;6.80;2.60;;;1.60;99.90;2.90;96535.00;;;;5062377;28;20426;-70
2023/01/15 00:56:29;;;;;;;4.93;2.97;;;1.60;99.90;2.60;96539.00;;;;5070357;28;20813;-69
2023/01/15 00:59:17;;;;;;;4.73;3.47;;;1.60;99.90;2.80;96537.00;;;;5067403;28;20458;-69
2023/01/15 01:02:06;;;;;;;2.87;2.57;;;;;2.90;96524.00;;;;5067410;28;20807;-68
2023/01/15 01:04:55;;;;;;;7.50;3.60;;;1.70;99.90;2.80;96523.00;;;;5058236;28;20434;-68
2023/01/15 01:07:45;;;;;;;4.43;2.83;;;1.60;99.90;3.00;96518.00;;;;5063147;28;20453;-69
2023/01/15 01:10:34;;;;;;;9.30;2.70;;;1.70;99.90;2.80;96523.00;;;;5066852;28;20446;-68
2023/01/15 01:13:22;;;;;;;5.03;3.03;;;1.80;99.90;2.40;96516.00;;;;5059491;28;20465;-69
2023/01/15 01:16:32;;;;;;;4.70;2.60;;;1.70;99.90;2.50;96508.00;;;;5069357;28;20434;-68
2023/01/15 01:19:22;;;;;;;3.27;2.63;;;1.60;99.90;2.20;96504.00;;;;5064493;28;20864;-68
2023/01/15 01:22:11;;;;;;;3.53;1.87;;;1.50;99.90;1.70;96510.00;;;;5062512;28;20965;-70
2023/01/15 01:25:01;;;;;;;3.13;2.50;;;1.40;99.90;1.70;96490.00;;;;5057282;28;20439;-69
2023/01/15 01:27:50;;;;;;;6.40;2.40;;;1.30;99.90;2.20;96493.00;;;;5049741;28;20469;-69
2023/01/15 01:30:39;;;;;;;3.27;2.73;;;1.30;99.90;2.50;96493.00;;;;5061958;28;20443;-69
2023/01/15 01:33:27;;;;;;;4.43;2.37;;;1.40;99.90;2.50;96494.00;;;;5068955;28;20430;-69
2023/01/15 01:36:17;;;;;;;4.97;2.47;;;1.40;99.90;2.50;96488.00;;;;5058650;28;20434;-68
2023/01/15 01:39:09;;;;;;;3.23;2.50;;;1.50;99.90;2.50;96484.00;;;;5068264;28;20422;-69
2023/01/15 01:41:59;;;;;;;7.07;3.40;;;1.50;99.90;2.40;96477.00;;;;5062277;28;20478;-68
2023/01/15 01:45:18;;;;;;;3.80;2.80;;;1.40;99.90;2.60;96471.00;;;;5050173;28;20851;-69
2023/01/15 01:48:07;;;;;;;8.77;3.77;;;1.50;99.90;2.70;96470.00;;;;5063739;28;20422;-68
2023/01/15 01:51:00;;;;;;;6.40;3.27;;;2.00;99.90;2.50;96466.00;;;;5057877;28;20545;-69
2023/01/15 01:53:50;;;;;;;3.97;2.97;;;1.60;99.90;2.70;96465.00;;;;5061711;28;20445;-69
2023/01/15 01:56:39;;;;;;;4.40;3.13;;;1.60;99.90;2.80;96461.00;;;;5057442;28;20433;-68
2023/01/15 01:59:29;;;;;;;3.87;2.73;;;1.70;99.90;2.50;96446.00;;;;5059246;28;20507;-68
2023/01/15 02:02:22;;;;;;;5.97;3.23;;;1.70;99.90;2.80;96448.00;;;;5069466;28;20462;-68
2023/01/15 02:05:16;;;;;;;5.03;3.03;;;1.70;99.90;2.60;96441.00;;;;5069119;28;20411;-68
2023/01/15 02:08:07;;;;;;;2.57;2.37;;;1.70;99.90;2.50;96433.00;;;;5068371;28;20921;-69
2023/01/15 02:10:56;;;;;;;3.07;1.80;;;1.60;99.90;2.20;96425.00;;;;5058137;28;20498;-69
2023/01/15 02:13:53;;;;;;;5.93;2.90;;;1.60;99.90;2.40;96420.00;;;;5059146;28;20430;-69
2023/01/15 02:16:47;;;;;;;6.03;2.73;;;1.50;99.90;2.90;96416.00;;;;5065724;28;20429;-69
2023/01/15 02:19:50;;;;;;;4.13;2.40;;;1.80;99.90;2.60;96409.00;;;;5069816;28;20521;-69
2023/01/15 02:22:58;;;;;;;2.80;2.33;;;1.70;99.90;2.50;96404.00;;;;5052921;28;20427;-69
2023/01/15 02:26:13;;;;;;;4.37;2.13;;;1.60;99.90;2.70;96394.00;;;;5051540;28;20427;-68
2023/01/15 02:29:07;;;;;;;2.90;2.20;;;1.60;99.90;2.70;96411.00;;;;5051900;28;20432;-68
2023/01/15 02:31:57;;;;;;;7.37;2.97;;;1.70;99.90;2.90;96407.00;;;;5071412;28;20523;-68
2023/01/15 02:34:52;;;;;;;8.63;2.97;;;1.80;99.90;2.90;96397.00;;;;5065887;28;20938;-68
2023/01/15 02:37:47;;;;;;;2.07;1.90;;;1.90;99.90;2.90;96390.00;;;;5053182;28;20431;-68
2023/01/15 02:40:36;;;;;;;3.03;1.83;;;1.90;99.90;2.70;96380.00;;;;5064246;28;20500;-68
2023/01/15 02:43:27;;;;;;;5.30;2.63;;;1.80;99.90;2.60;96378.00;;;;5071981;28;20473;-68
2023/01/15 02:46:20;;;;;;;3.50;2.50;;;1.70;99.90;2.40;96373.00;;;;5070548;28;20473;-68
2023/01/15 02:49:15;;;;;;;3.03;2.07;;;1.70;99.90;2.50;96355.00;;;;5067044;28;20973;-68
2023/01/15 02:52:08;;;;;;;7.97;2.33;;;1.60;99.90;2.90;96363.00;;;;5071214;28;20465;-68
2023/01/15 02:55:02;;;;;;;4.10;2.67;;;1.70;99.90;2.80;96349.00;;;;5071130;28;20422;-68
2023/01/15 02:57:55;;;;;;;2.47;1.90;;;1.70;99.90;2.50;96346.00;;;;5056163;28;20424;-67
2023/01/15 03:00:48;;;;;;;5.07;2.23;;;1.70;99.90;2.70;96357.00;;;;5064723;28;20551;-67
2023/01/15 03:03:45;;;;;;;2.87;1.80;;;1.70;99.90;2.70;96349.00;;;;5061591;28;20462;-68
2023/01/15 03:06:41;;;;;;;3.63;1.93;;;1.60;99.90;2.80;96342.00;;;;5043687;28;20459;-68
2023/01/15 03:09:30;;;;;;;4.63;2.30;;;;;2.60;96326.00;;;;5060134;28;20483;-67
2023/01/15 03:12:26;;;;;;;4.67;2.03;;;1.60;99.90;2.10;96329.00;;;;5075375;28;20461;-68
2023/01/15 03:16:33;;;;;;;2.03;1.60;;;1.50;99.90;2.10;96316.00;;;;5058961;28;20459;-68
2023/01/15 03:18:35;;;;;;;2.40;1.53;;;1.40;99.90;2.30;96320.00;;;;5061509;28;20953;-68
2023/01/15 03:21:32;;;;;;;2.43;1.90;;;1.40;99.90;2.50;96324.00;;;;5070970;28;21056;-69
2023/01/15 03:24:31;;;;;;;2.93;2.33;;;1.40;99.90;2.50;96317.00;;;;5070600;28;20488;-68
2023/01/15 03:27:20;;;;;;;1.73;1.57;;;1.50;99.90;2.00;96313.00;;;;5070603;28;20419;-69
2023/01/15 03:30:13;;;;;;;3.17;2.67;;;1.40;99.90;2.00;96301.00;;;;5070972;28;20469;-68
2023/01/15 03:33:02;;;;;;;2.83;1.77;;;1.30;99.90;2.40;96309.00;;;;5070008;28;20555;-68
2023/01/15 03:35:57;;;;;;;3.20;2.10;;;1.30;99.90;2.20;96286.00;;;;5063145;28;20512;-68
2023/01/15 03:38:49;;;;;;;4.20;2.13;;;1.30;99.90;2.40;96291.00;;;;5044437;28;20493;-68
2023/01/15 03:41:52;;;;;;;1.83;1.60;;;1.30;99.90;2.50;96286.00;;;;5044603;28;21040;-68
2023/01/15 03:44:49;;;;;;;2.77;2.00;;;1.30;99.90;2.40;96282.00;;;;5062733;28;20500;-69
2023/01/15 03:47:51;;;;;;;3.53;1.80;;;1.30;99.90;2.40;96271.00;;;;5062304;28;20452;-69
2023/01/15 03:50:47;;;;;;;4.03;2.60;;;1.40;99.90;2.50;96262.00;;;;5053828;28;20608;-69
2023/01/15 03:53:44;;;;;;;4.10;2.13;;;1.40;99.90;2.30;96274.00;;;;5069635;28;20520;-69
2023/01/15 03:56:40;;;;;;;4.33;2.13;;;1.40;99.90;2.20;96264.00;;;;5054643;28;20946;-69
2023/01/15 03:59:33;;;;;;;1.40;1.30;;;1.50;99.90;1.90;96260.00;;;;5063386;28;20458;-68
2023/01/15 04:02:24;;;;;;;1.90;1.70;;;1.30;99.90;2.30;96262.00;;;;5055581;28;20427;-69
2023/01/15 04:05:13;;;;;;;5.60;2.07;;;;;2.20;96248.00;;;;5051140;28;20489;-69
2023/01/15 04:08:03;;;;;;;2.43;1.67;;;1.30;99.90;2.20;96257.00;;;;5049236;28;20926;-69
2023/01/15 04:10:53;;;;;;;5.07;2.20;;;1.30;99.90;2.10;96253.00;;;;5078660;28;20741;-68
2023/01/15 04:13:44;;;;;;;2.07;1.97;;;1.20;99.90;2.30;96251.00;;;;5056858;28;20506;-69
2023/01/15 04:16:33;;;;;;;4.87;2.93;;;1.20;99.90;2.50;96249.00;;;;5050096;28;20466;-69
2023/01/15 04:19:22;;;;;;;4.80;2.10;;;1.20;99.90;2.10;96253.00;;;;5060197;28;20870;-69
2023/01/15 04:22:11;;;;;;;2.97;1.93;;;1.20;99.90;2.00;96265.00;;;;5055808;28;20489;-69
2023/01/15 04:25:00;;;;;;;2.47;1.87;;;;;2.10;96253.00;;;;5059845;28;20486;-69
2023/01/15 04:27:49;;;;;;;3.57;2.17;;;;;2.10;96247.00;;;;5050802;28;20613;-68
2023/01/15 04:30:42;;;;;;;1.87;1.27;;;1.00;99.90;2.10;96245.00;;;;5069923;28;20482;-69
2023/01/15 04:33:30;;;;;;;2.70;1.73;;;1.10;99.90;2.20;96247.00;;;;5061644;28;20965;-69
2023/01/15 04:36:19;;;;;;;2.27;1.80;;;1.10;99.90;2.40;96233.00;;;;5060563;28;20418;-69
2023/01/15 04:39:09;;;;;;;2.07;1.87;;;;;2.30;96233.00;;;;5068840;28;20514;-69
2023/01/15 04:45:05;;;;;;;3.60;2.07;;;1.20;99.90;1.90;96221.00;;;;5065210;28;20454;-68
2023/01/15 04:47:55;;;;;;;3.23;1.53;;;1.10;99.90;1.90;96222.00;;;;5063161;28;20419;-68
2023/01/15 04:50:44;;;;;;;2.73;1.83;;;1.10;99.90;2.10;96214.00;;;;5055372;28;20454;-68
2023/01/15 04:53:33;;;;;;;3.17;2.10;;;1.00;99.90;2.10;96220.00;;;;5050236;28;21087;-68
2023/01/15 04:56:22;;;;;;;3.73;2.47;;;1.00;99.90;1.80;96204.00;;;;5062817;28;20427;-68
2023/01/15 04:59:11;;;;;;;1.20;1.10;;;1.00;99.90;1.30;96192.00;;;;5049356;28;20419;-71
2023/01/15 05:02:00;;;;;;;1.20;1.10;;;0.80;99.90;1.20;96202.00;;;;5057606;28;20531;-69
2023/01/15 05:04:54;;;;;;;1.63;1.43;;;0.70;99.90;1.40;96200.00;;;;5063135;28;20446;-68
2023/01/15 05:07:43;;;;;;;4.23;1.87;;;0.70;99.90;1.70;96193.00;;;;5067884;28;20498;-68
2023/01/15 05:10:32;;;;;;;2.57;1.63;;;0.80;99.90;1.40;96191.00;;;;5065880;28;20872;-68
2023/01/15 05:13:21;;;;;;;3.47;2.03;;;0.60;99.90;1.20;96181.00;;;;5058088;28;20889;-69
2023/01/15 05:16:13;;;;;;;2.83;2.07;;;0.60;99.90;1.60;96178.00;;;;5068767;28;20419;-69
2023/01/15 05:19:06;;;;;;;1.60;1.50;;;0.60;99.90;1.80;96179.00;;;;5069211;28;21325;-69
2023/01/15 05:21:56;;;;;;;2.23;2.10;;;0.60;99.90;1.80;96172.00;;;;5068644;28;20446;-69
2023/01/15 05:24:44;;;;;;;1.77;1.33;;;0.60;99.90;1.70;96165.00;;;;5062943;28;20438;-69
2023/01/15 05:27:33;;;;;;;26.97;17.70;;;0.60;99.90;1.70;96168.00;;;;5060965;28;20954;-69
2023/01/15 05:30:22;;;;;;;2.77;2.00;;;0.70;99.90;1.50;96156.00;;;;5066509;28;21031;-68
2023/01/15 05:33:10;;;;;;;2.07;1.87;;;;;1.70;96156.00;;;;5068469;28;20549;-69
2023/01/15 05:36:02;;;;;;;3.43;1.63;;;0.60;99.90;1.70;96149.00;;;;5058711;28;20933;-69
2023/01/15 05:38:54;;;;;;;6.47;3.13;;;0.70;99.90;1.70;96153.00;;;;5068799;28;20423;-69
2023/01/15 05:41:51;;;;;;;4.13;3.83;;;0.70;99.90;1.60;96156.00;;;;5062446;28;20462;-69
2023/01/15 05:44:40;;;;;;;2.17;2.00;;;0.70;99.90;1.60;96155.00;;;;5062008;28;20430;-69
2023/01/15 05:47:29;;;;;;;4.10;2.50;;;0.60;99.90;1.70;96151.00;;;;5071442;28;20531;-69
2023/01/15 05:50:18;;;;;;;1.87;1.77;;;0.60;99.90;1.70;96147.00;;;;5058660;28;20503;-70
2023/01/15 05:53:07;;;;;;;1.83;1.30;;;0.60;99.90;1.80;96138.00;;;;5059452;28;20505;-69
2023/01/15 05:56:00;;;;;;;3.87;1.57;;;0.60;99.90;2.00;96141.00;;;;5064592;28;20446;-69
2023/01/15 05:58:49;;;;;;;2.07;1.50;;;0.60;99.90;2.00;96139.00;;;;5068345;28;20429;-69
2023/01/15 06:01:38;;;;;;;1.80;1.70;;;0.70;99.90;1.60;96126.00;;;;5060318;28;20477;-70
2023/01/15 06:04:27;;;;;;;4.00;1.67;;;0.70;99.90;1.40;96133.00;;;;5056003;28;20447;-69
2023/01/15 06:07:16;;;;;;;4.63;1.77;;;0.60;99.90;1.40;96133.00;;;;5053223;28;20415;-70
2023/01/15 06:10:07;;;;;;;1.23;1.13;;;0.60;99.90;1.60;96133.00;;;;5070471;28;20970;-69
2023/01/15 06:12:57;;;;;;;2.03;1.60;;;0.50;99.90;1.70;96139.00;;;;5071969;28;20436;-69
2023/01/15 06:15:46;;;;;;;1.90;1.40;;;0.50;99.90;1.70;96137.00;;;;5070673;28;20462;-69
2023/01/15 06:18:35;;;;;;;2.37;1.60;;;0.50;99.90;1.40;96127.00;;;;5064187;28;20453;-69
2023/01/15 06:21:23;;;;;;;1.70;1.50;;;0.50;99.90;1.70;96142.00;;;;5071720;28;20870;-69
2023/01/15 06:24:15;;;;;;;3.90;1.50;;;;;1.30;96136.00;;;;5071760;28;20492;-69
2023/01/15 06:27:04;;;;;;;1.53;1.43;;;0.50;99.90;1.60;96127.00;;;;5071872;28;20440;-69
2023/01/15 06:29:55;;;;;;;1.83;1.27;;;0.60;99.90;1.50;96123.00;;;;5072030;28;20415;-69
2023/01/15 06:32:43;;;;;;;1.73;1.63;;;0.50;99.90;1.50;96122.00;;;;5059352;28;20431;-68
2023/01/15 06:35:33;;;;;;;2.10;1.40;;;0.60;99.90;1.60;96124.00;;;;5059682;28;20504;-70
2023/01/15 06:38:21;;;;;;;1.10;1.10;;;0.60;99.90;1.40;96124.00;;;;5062159;28;20419;-70
2023/01/15 06:47:28;;;;;;;2.77;1.67;;;0.70;99.90;1.80;96138.00;;;;5063212;28;20434;-69
2023/01/15 06:50:17;;;;;;;2.03;1.80;;;0.70;99.90;1.90;96136.00;;;;5059147;28;20535;-69
2023/01/15 06:53:06;;;;;;;3.40;1.70;;;0.70;99.90;1.80;96131.00;;;;5064294;28;20576;-69
2023/01/15 06:55:54;;;;;;;2.20;1.83;;;0.80;99.90;1.80;96126.00;;;;5060507;28;20490;-69
2023/01/15 06:58:44;;;;;;;1.57;1.43;;;0.80;99.90;2.00;96118.00;;;;5060604;28;20446;-69
2023/01/15 07:01:32;;;;;;;2.73;1.40;;;0.80;99.90;2.00;96137.00;;;;5062138;28;20463;-69
2023/01/15 07:04:22;;;;;;;3.67;2.10;;;1.10;99.90;1.90;96136.00;;;;5062158;28;20388;-69
2023/01/15 07:07:11;;;;;;;3.33;2.17;;;0.80;99.90;2.00;96123.00;;;;5065699;28;20232;-69
2023/01/15 07:10:00;;;;;;;1.63;1.53;;;0.90;99.90;1.90;96132.00;;;;5071159;28;20438;-69
2023/01/15 07:12:48;;;;;;;1.30;1.30;;;0.90;99.90;2.20;96127.00;;;;5063940;28;20430;-69
2023/01/15 07:15:38;;;;;;;2.13;1.50;;;0.90;99.90;2.10;96134.00;;;;5062803;28;20956;-69
2023/01/15 07:18:28;;;;;;;5.97;3.93;;;0.90;99.90;1.90;96125.00;;;;5060517;28;20427;-70
2023/01/15 07:21:18;;;;;;;3.23;2.27;;;0.90;99.90;1.70;96115.00;;;;5067422;28;20481;-69
2023/01/15 07:24:09;;;;;;;2.23;1.43;;;0.90;99.90;1.70;96112.00;;;;5067187;28;20423;-69
2023/01/15 07:26:58;;;;;;;2.17;1.73;;;0.90;99.90;1.70;96103.00;;;;5069056;28;20423;-69
2023/01/15 07:29:47;;;;;;;4.23;1.73;;;0.90;99.90;1.80;96112.00;;;;5060068;28;20847;-70
2023/01/15 07:32:35;;;;;;;4.03;1.43;;;0.90;99.90;2.00;96112.00;;;;5046811;28;20472;-70
2023/01/15 07:35:24;;;;;;;1.30;1.20;;;1.00;99.90;1.60;96100.00;;;;5069909;28;20961;-73
2023/01/15 07:38:14;;;;;;;0.97;0.90;;;1.00;99.90;1.80;96100.00;;;;5064534;28;20473;-70
2023/01/15 07:50:26;;;;;;;2.07;1.50;;;1.30;99.90;2.60;96097.00;;;;5056925;28;20972;-69
2023/01/15 07:53:16;;;;;;;2.80;1.77;;;1.40;99.90;2.80;96086.00;;;;5067079;28;20430;-68
2023/01/15 07:56:05;;;;;;;1.33;1.10;;;1.50;99.90;2.50;96065.00;;;;5066239;28;20493;-70
2023/01/15 07:58:54;;;;;;;1.93;1.50;;;1.50;99.90;2.40;96056.00;;;;5063444;28;20419;-70
2023/01/15 08:01:43;;;;;;;1.17;1.07;;;1.50;99.90;2.50;96055.00;;;;5069782;28;20521;-69
2023/01/15 08:04:31;;;;;;;1.23;1.03;;;1.50;99.90;2.30;96058.00;;;;5069605;28;20439;-69
2023/01/15 08:07:20;;;;;;;2.03;1.83;;;1.50;99.90;2.60;96064.00;;;;5063572;28;20524;-69
2023/01/15 08:10:13;;;;;;;2.50;2.27;;;1.60;99.90;3.00;96065.00;;;;5068618;28;20467;-69
2023/01/15 08:16:16;;;;;;;2.27;1.83;;;1.80;99.90;3.80;96083.00;;;;5023555;28;20484;-69
2023/01/15 08:19:05;;;;;;;4.03;2.37;;;2.10;99.90;3.80;96092.00;;;;5053950;28;20435;-69
2023/01/15 08:21:54;;;;;;;4.53;2.70;;;2.20;99.90;3.80;96086.00;;;;5060727;28;20877;-70
2023/01/15 08:24:42;;;;;;;7.87;4.07;;;2.30;99.90;3.80;96078.00;;;;5069756;28;20496;-69
2023/01/15 08:27:33;;;;;;;5.93;3.43;;;2.50;99.90;4.10;96078.00;;;;5066165;28;20438;-69
2023/01/15 08:30:24;;;;;;;4.00;2.47;;;2.60;99.90;4.40;96078.00;;;;5064904;28;20865;-69
2023/01/15 08:33:16;;;;;;;5.43;2.80;;;2.80;99.90;4.50;96074.00;;;;5059551;28;20872;-70
2023/01/15 08:36:05;;;;;;;3.50;2.80;;;2.90;99.90;4.60;96074.00;;;;5068981;28;20465;-69
2023/01/15 08:38:54;;;;;;;2.80;2.60;;;3.00;99.90;4.40;96078.00;;;;5070305;28;20508;-70
2023/01/15 08:41:43;;;;;;;3.27;2.53;;;3.10;99.90;4.70;96084.00;;;;5073843;28;20478;-69
2023/01/15 08:44:33;;;;;;;2.90;2.70;;;3.10;99.90;4.70;96080.00;;;;5068592;28;20450;-68
2023/01/15 08:47:22;;;;;;;6.03;4.13;;;3.30;99.90;4.80;96078.00;;;;5064170;28;20195;-69
2023/01/15 08:50:11;;;;;;;33.00;15.33;;;3.30;99.90;4.80;96085.00;;;;5069799;28;20219;-68
2023/01/15 08:53:00;;;;;;;7.73;6.37;;;3.40;99.90;4.80;96074.00;;;;5073393;28;20196;-68
2023/01/15 08:55:53;;;;;;;6.87;4.80;;;3.40;99.90;5.00;96070.00;;;;5060459;28;20230;-69
2023/01/15 08:58:43;;;;;;;15.40;8.07;;;3.50;99.90;4.90;96066.00;;;;5066466;28;20196;-69
2023/01/15 09:01:33;;;;;;;8.47;5.30;;;3.70;99.90;4.80;96069.00;;;;5053454;28;20219;-69
2023/01/15 09:04:22;;;;;;;2.77;2.07;;;3.60;99.90;4.70;96064.00;;;;5072728;28;20245;-69
2023/01/15 09:07:11;;;;;;;3.00;2.70;;;3.60;99.90;4.90;96059.00;;;;5064347;28;20204;-69
2023/01/15 09:10:00;;;;;;;6.13;2.60;;;3.60;99.90;5.40;96061.00;;;;5074606;28;20454;-69
2023/01/15 09:12:49;;;;;;;4.17;2.53;;;3.80;99.90;5.50;96057.00;;;;5071530;28;20256;-67
2023/01/15 09:15:38;;;;;;;9.80;7.33;;;3.90;99.90;5.50;96054.00;;;;5072388;28;20591;-67
2023/01/15 09:18:28;;;;;;;9.37;5.53;;;4.00;99.90;5.90;96053.00;;;;5062160;28;20201;-67
2023/01/15 09:21:17;;;;;;;6.40;4.17;;;4.20;99.90;6.00;96046.00;;;;5075489;28;20285;-67
2023/01/15 09:24:07;;;;;;;6.80;4.53;;;4.40;99.90;5.80;96028.00;;;;5074810;28;20199;-67
2023/01/15 09:26:55;;;;;;;11.23;5.47;;;4.40;99.90;6.00;96030.00;;;;5079402;28;20199;-67
2023/01/15 09:29:44;;;;;;;4.53;3.67;;;4.60;99.90;6.10;96038.00;;;;5066787;28;20273;-68
2023/01/15 09:32:33;;;;;;;4.33;3.50;;;4.60;99.90;6.30;96043.00;;;;5067294;28;20277;-67
2023/01/15 09:35:23;;;;;;;3.87;2.53;;;4.70;99.90;6.50;96022.00;;;;5079506;28;20933;-67
2023/01/15 09:38:12;;;;;;;3.87;2.10;;;4.80;99.90;6.80;96022.00;;;;5080336;28;20192;-66
2023/01/15 09:42:03;;;;;;;4.50;1.97;;;4.90;99.90;6.50;96019.00;;;;5080105;28;20223;-67
2023/01/15 09:44:39;;;;;;;2.23;1.90;;;5.20;99.90;6.50;96023.00;;;;5076597;28;20192;-67
2023/01/15 09:47:33;;;;;;;2.37;1.80;;;5.30;99.90;6.60;96033.00;;;;5075108;28;20257;-67
2023/01/15 09:50:30;;;;;;;4.30;2.70;;;5.20;99.90;6.90;96037.00;;;;5076432;28;20638;-67
2023/01/15 09:53:44;;;;;;;4.00;3.07;;;5.20;99.90;6.90;96024.00;;;;5082442;28;20276;-66
2023/01/15 09:56:37;;;;;;;4.23;2.83;;;5.30;99.90;7.00;96010.00;;;;5076202;28;20605;-66
2023/01/15 09:59:33;;;;;;;9.20;4.63;;;5.30;99.90;7.10;96005.00;;;;5077352;28;20207;-67
2023/01/15 10:02:30;;;;;;;5.70;2.77;;;5.40;99.90;6.80;95996.00;;;;5076202;28;20203;-67
2023/01/15 10:05:26;;;;;;;6.37;3.63;;;5.40;99.90;6.70;95992.00;;;;5068100;28;20203;-67
2023/01/15 10:08:20;;;;;;;5.87;3.17;;;5.50;99.90;6.70;95996.00;;;;5066206;28;20189;-67
2023/01/15 10:14:52;;;;;;;6.00;4.43;;;5.40;99.90;6.90;95989.00;;;;5076748;28;20203;-67
2023/01/15 10:17:43;;;;;;;5.50;3.97;;;5.50;99.90;7.00;95994.00;;;;5070288;28;20615;-66
2023/01/15 10:20:55;;;;;;;4.77;3.43;;;5.50;99.90;7.40;95991.00;;;;5069295;28;20346;-67
2023/01/15 10:24:01;;;;;;;6.60;4.43;;;5.60;99.90;7.30;95989.00;;;;5081365;28;20223;-66
2023/01/15 10:26:55;;;;;;;4.73;3.53;;;5.60;99.90;7.30;95984.00;;;;5069428;28;20203;-67
2023/01/15 10:29:49;;;;;;;3.93;3.33;;;5.80;99.90;7.20;95967.00;;;;5072960;28;20203;-67
2023/01/15 10:32:49;;;;;;;4.37;2.57;;;5.70;99.90;6.80;95960.00;;;;5072257;28;20257;-66
2023/01/15 10:35:59;;;;;;;3.13;2.73;;;5.70;99.90;6.70;95971.00;;;;5068893;28;20622;-66
2023/01/15 10:38:58;;;;;;;7.03;3.47;;;5.70;99.90;7.10;95967.00;;;;5073979;28;20200;-66
2023/01/15 10:42:01;;;;;;;5.07;2.93;;;5.70;99.90;7.30;95948.00;;;;5068269;28;20278;-67
2023/01/15 10:45:00;;;;;;;7.00;3.40;;;5.70;99.90;7.30;95943.00;;;;5074716;28;20215;-66
2023/01/15 10:47:54;;;;;;;6.70;5.73;;;5.80;99.90;7.30;95937.00;;;;5084846;28;20206;-68
2023/01/15 10:50:43;;;;;;;11.27;4.53;;;5.90;99.90;7.60;95924.00;;;;5079317;28;20277;-66
2023/01/15 10:53:42;;;;;;;4.27;3.87;;;5.90;99.90;8.10;95931.00;;;;5073765;28;20222;-67
2023/01/15 10:56:37;;;;;;;5.93;3.97;;;6.10;99.90;8.00;95924.00;;;;5074731;28;20247;-67
2023/01/15 10:59:39;;;;;;;5.23;3.93;;;6.40;99.90;8.10;95924.00;;;;5076054;28;20210;-67
2023/01/15 11:02:32;;;;;;;3.90;2.70;;;6.70;99.90;8.50;95926.00;;;;5075867;28;20207;-67
2023/01/15 11:05:22;;;;;;;4.50;3.27;;;6.90;99.90;8.70;95928.00;;;;5075388;28;20222;-67
2023/01/15 11:08:21;;;;;;;4.10;3.10;;;7.20;99.90;9.40;95909.00;;;;5069585;28;20211;-65
2023/01/15 11:20:58;;;;;;;6.93;3.47;;;8.10;99.90;9.10;95911.00;;;;5059669;28;20219;-67
2023/01/15 11:23:49;;;;;;;4.30;3.50;;;8.10;99.90;9.60;95916.00;;;;5059473;28;20211;-67
2023/01/15 11:26:39;;;;;;;5.17;3.70;;;8.10;99.90;9.70;95910.00;;;;5053214;28;20261;-67
2023/01/15 11:29:32;;;;;;;8.43;3.77;;;8.20;99.90;9.80;95897.00;;;;5072825;28;20275;-67
2023/01/15 11:32:29;;;;;;;6.87;3.43;;;8.30;99.90;9.70;95905.00;;;;5062804;28;20250;-64
2023/01/15 11:35:19;;;;;;;6.53;3.47;;;8.30;99.90;9.90;95896.00;;;;5051910;28;20205;-67
2023/01/15 11:38:14;;;;;;;6.53;3.60;;;8.30;99.90;9.80;95887.00;;;;5058965;28;20231;-67
2023/01/15 11:41:04;;;;;;;4.60;2.87;;;8.30;99.90;9.80;95884.00;;;;5048800;28;20219;-67
2023/01/15 11:53:28;;;;;;;7.43;3.50;;;8.30;99.90;9.80;95878.00;;;;5071871;28;20298;-67
2023/01/15 11:56:22;;;;;;;7.47;4.37;;;8.30;99.90;9.60;95873.00;;;;5062164;28;20257;-67
2023/01/15 11:59:16;;;;;;;6.67;3.57;;;8.30;99.90;9.20;95865.00;;;;5074436;28;20675;-67
2023/01/15 12:02:29;;;;;;;5.97;3.63;;;8.10;99.90;9.10;95868.00;;;;5066140;28;20267;-66
2023/01/15 12:05:20;;;;;;;11.10;6.50;;;8.00;99.90;9.20;95866.00;;;;5067776;28;20204;-66
2023/01/15 12:08:26;;;;;;;6.73;4.03;;;7.90;99.90;9.30;95864.00;;;;5064789;28;20273;-67
2023/01/15 12:11:31;;;;;;;6.00;3.50;;;7.90;99.90;9.10;95862.00;;;;5066150;28;20308;-67
2023/01/15 12:14:50;;;;;;;6.07;4.03;;;7.80;99.90;9.20;95855.00;;;;5066381;28;20200;-66
2023/01/15 12:18:18;;;;;;;4.67;4.20;;;7.80;99.90;9.40;95842.00;;;;5058610;28;20307;-67
2023/01/15 12:21:27;;;;;;;6.73;4.63;;;7.80;99.90;9.30;95829.00;;;;5055574;28;20708;-67
2023/01/15 12:24:41;;;;;;;4.77;4.07;;;7.80;99.90;9.30;95851.00;;;;5065466;28;20670;-67
2023/01/15 12:27:52;;;;;;;6.57;3.10;;;7.80;99.90;9.20;95843.00;;;;5067525;28;20204;-67
2023/01/15 12:30:53;;;;;;;8.03;4.50;;;7.70;99.90;9.30;95843.00;;;;5065524;28;20294;-65
2023/01/15 12:33:49;;;;;;;4.87;3.50;;;7.80;99.90;9.30;95840.00;;;;5061792;28;20689;-67
2023/01/15 12:36:44;;;;;;;7.50;4.30;;;7.70;99.90;8.80;95839.00;;;;5068961;28;20293;-67
2023/01/15 12:39:46;;;;;;;7.57;4.67;;;7.70;99.90;8.60;95833.00;;;;5068779;28;20544;-66
2023/01/15 12:45:56;;;;;;;5.47;3.93;;;7.50;99.90;8.90;95824.00;;;;5031730;28;20207;-66
2023/01/15 12:48:53;;;;;;;8.50;3.90;;;7.50;99.90;8.90;95819.00;;;;5068001;28;20206;-64
2023/01/15 12:51:50;;;;;;;7.37;4.07;;;7.50;99.90;8.80;95815.00;;;;5068479;28;20215;-67
2023/01/15 12:54:48;;;;;;;6.63;4.97;;;7.50;99.90;8.40;95818.00;;;;5071172;28;20707;-67
2023/01/15 12:57:39;;;;;;;7.33;3.83;;;7.40;99.90;8.40;95827.00;;;;5059562;28;20220;-66
2023/01/15 13:00:36;;;;;;;6.67;4.40;;;7.30;99.90;8.60;95822.00;;;;5072330;28;20223;-67
2023/01/15 13:03:34;;;;;;;8.83;4.60;;;7.30;99.90;8.80;95808.00;;;;5068664;28;20214;-67
2023/01/15 13:06:27;;;;;;;7.53;4.67;;;7.30;99.90;8.80;95810.00;;;;5071032;28;20207;-65
2023/01/15 13:09:30;;;;;;;3.97;3.37;;;7.30;99.90;8.70;95813.00;;;;5078119;28;20671;-66
2023/01/15 13:12:18;;;;;;;3.83;3.43;;;7.30;99.90;8.60;95823.00;;;;5074641;28;20627;-67
2023/01/15 13:15:13;;;;;;;6.50;4.27;;;7.30;99.90;8.20;95823.00;;;;5070774;28;20196;-66
2023/01/15 13:18:13;;;;;;;5.40;4.10;;;7.20;99.90;7.80;95819.00;;;;5069398;28;20226;-64
2023/01/15 13:21:11;;;;;;;7.83;4.63;;;7.10;99.90;7.80;95814.00;;;;5075698;28;20219;-67
2023/01/15 13:24:41;;;;;;;5.67;4.40;;;6.80;99.90;7.60;95797.00;;;;5069725;28;20284;-66
2023/01/15 13:27:47;;;;;;;5.37;3.90;;;6.80;99.90;7.70;95794.00;;;;5067338;28;20207;-66
2023/01/15 13:30:54;;;;;;;5.23;3.87;;;6.60;99.90;7.80;95803.00;;;;5070288;28;20247;-66
2023/01/15 13:33:46;;;;;;;6.07;3.70;;;6.60;99.90;8.00;95794.00;;;;5056592;28;20278;-66
2023/01/15 13:36:43;;;;;;;5.50;3.73;;;6.60;99.90;7.90;95796.00;;;;5064134;28;20228;-64
2023/01/15 13:39:41;;;;;;;10.57;3.97;;;6.60;99.90;7.50;95794.00;;;;5058663;28;20200;-66
2023/01/15 13:42:31;;;;;;;6.07;3.47;;;6.50;99.90;7.10;95803.00;;;;5053723;28;20208;-67
2023/01/15 13:45:32;;;;;;;6.83;3.67;;;6.40;99.90;7.60;95808.00;;;;5060805;28;20211;-65
2023/01/15 13:48:29;;;;;;;6.30;3.23;;;6.40;99.90;7.70;95811.00;;;;5064408;28;20210;-67
2023/01/15 13:51:29;;;;;;;6.67;4.40;;;6.40;99.90;7.80;95801.00;;;;5063956;28;20220;-67
2023/01/15 13:54:29;;;;;;;8.37;4.23;;;6.40;99.90;7.50;95806.00;;;;5057709;28;20898;-66
2023/01/15 13:57:26;;;;;;;3.90;2.87;;;6.40;99.90;7.40;95801.00;;;;5060713;28;20225;-66
2023/01/15 14:00:31;;;;;;;4.67;2.87;;;6.30;99.90;7.40;95799.00;;;;5055809;28;20278;-65
2023/01/15 14:03:28;;;;;;;3.17;2.73;;;6.30;99.90;7.70;95811.00;;;;5060950;28;20262;-67